^^
Saratoga-Weather Station Historical Data
Daily Summary for February 3, 2020 Units:  Metric    English   Both
Daily Weekly Monthly Yearly Custom
  High: Low: Average:
Temperature: 25 °C 11.1 °C 17.6 °C
Dew Point: 13.1 °C 9.6 °C 11 °C
Humidity: 92% 42% 68%
Wind Speed: 11.1km/h 0km/h 1.8km/h
Wind Gust: 19.3km/h - -
Wind- - WSW
Pressure: 1021.3 hPa 1018.3 hPa -
Precipitation: 0.0 mm    
Historical Graphs
 
 
Tabular Data for February 3, 2020
Time Temperature Dew Point Pressure Wind Wind Speed Wind Gust Humidity Rainfall Rate (Hourly) solar
00:04 12.9 °C 10.1 °C 1018.6 hPa Calm     83% 0.0 mm 0 W/m2
00:10 12.9 °C 10.3 °C 1018.6 hPa Calm     84% 0.0 mm 0 W/m2
00:15 12.8 °C 10.2 °C 1018.6 hPa Calm     84% 0.0 mm 0 W/m2
00:20 12.8 °C 10.2 °C 1018.6 hPa Calm     84% 0.0 mm 0 W/m2
00:25 12.8 °C 10.2 °C 1018.6 hPa Calm     84% 0.0 mm 0 W/m2
00:30 12.8 °C 10.3 °C 1018.6 hPa Calm     85% 0.0 mm 0 W/m2
00:35 12.8 °C 10.3 °C 1018.6 hPa Calm     85% 0.0 mm 0 W/m2
00:40 12.8 °C 10.3 °C 1018.6 hPa Calm     85% 0.0 mm 0 W/m2
00:45 12.8 °C 10.2 °C 1018.6 hPa Calm     84% 0.0 mm 0 W/m2
00:50 12.8 °C 10.2 °C 1018.6 hPa Calm     84% 0.0 mm 0 W/m2
00:55 12.8 °C 10.2 °C 1018.6 hPa Calm     84% 0.0 mm 0 W/m2
01:00 12.7 °C 10.1 °C 1018.6 hPa Calm     84% 0.0 mm 0 W/m2
01:05 12.6 °C 10.1 °C 1018.6 hPa Calm     85% 0.0 mm 0 W/m2
01:10 12.4 °C 9.9 °C 1018.6 hPa Calm     85% 0.0 mm 0 W/m2
01:15 12.3 °C 9.9 °C 1018.6 hPa Calm     85% 0.0 mm 0 W/m2
01:20 12.3 °C 10 °C 1018.6 hPa Calm     86% 0.0 mm 0 W/m2
01:25 12.2 °C 9.9 °C 1018.6 hPa Calm     86% 0.0 mm 0 W/m2
01:30 12.2 °C 9.9 °C 1018.6 hPa Calm     86% 0.0 mm 0 W/m2
01:35 12.1 °C 9.8 °C 1018.6 hPa Calm     86% 0.0 mm 0 W/m2
01:40 12 °C 9.9 °C 1018.6 hPa Calm     87% 0.0 mm 0 W/m2
01:45 11.9 °C 9.8 °C 1018.6 hPa Calm     87% 0.0 mm 0 W/m2
01:50 11.8 °C 9.7 °C 1018.6 hPa Calm     87% 0.0 mm 0 W/m2
01:55 11.8 °C 9.7 °C 1018.6 hPa Calm     87% 0.0 mm 0 W/m2
02:00 11.7 °C 9.8 °C 1018.6 hPa Calm     88% 0.0 mm 0 W/m2
02:05 11.7 °C 9.8 °C 1018.6 hPa Calm     88% 0.0 mm 0 W/m2
02:10 11.7 °C 9.8 °C 1018.6 hPa Calm     88% 0.0 mm 0 W/m2
02:15 11.6 °C 9.7 °C 1018.6 hPa Calm     88% 0.0 mm 0 W/m2
02:20 11.6 °C 9.8 °C 1018.6 hPa Calm     89% 0.0 mm 0 W/m2
02:26 11.6 °C 9.8 °C 1018.6 hPa Calm     89% 0.0 mm 0 W/m2
02:31 11.5 °C 9.7 °C 1018.6 hPa Calm     89% 0.0 mm 0 W/m2
02:36 11.5 °C 9.7 °C 1018.6 hPa Calm     89% 0.0 mm 0 W/m2
02:41 11.5 °C 9.7 °C 1018.6 hPa Calm     89% 0.0 mm 0 W/m2
02:46 11.4 °C 9.7 °C 1018.6 hPa Calm     89% 0.0 mm 0 W/m2
02:51 11.4 °C 9.8 °C 1018.6 hPa Calm     90% 0.0 mm 0 W/m2
02:56 11.3 °C 9.7 °C 1018.6 hPa Calm     90% 0.0 mm 0 W/m2
03:01 11.3 °C 9.7 °C 1018.6 hPa Calm     90% 0.0 mm 0 W/m2
03:06 11.3 °C 9.7 °C 1018.6 hPa Calm     90% 0.0 mm 0 W/m2
03:11 11.3 °C 9.7 °C 1018.6 hPa Calm     90% 0.0 mm 0 W/m2
03:16 11.3 °C 9.9 °C 1018.6 hPa Calm     91% 0.0 mm 0 W/m2
03:21 11.3 °C 9.7 °C 1018.6 hPa Calm     90% 0.0 mm 0 W/m2
03:26 11.2 °C 9.6 °C 1018.6 hPa Calm     90% 0.0 mm 0 W/m2
03:31 11.2 °C 9.6 °C 1018.6 hPa Calm     90% 0.0 mm 0 W/m2
03:36 11.2 °C 9.8 °C 1018.6 hPa Calm     91% 0.0 mm 0 W/m2
03:41 11.1 °C 9.7 °C 1018.6 hPa Calm     91% 0.0 mm 0 W/m2
03:46 11.2 °C 9.8 °C 1018.6 hPa Calm     91% 0.0 mm 0 W/m2
03:51 11.2 °C 9.8 °C 1018.6 hPa Calm     91% 0.0 mm 0 W/m2
03:56 11.2 °C 9.8 °C 1018.3 hPa Calm     91% 0.0 mm 0 W/m2
04:01 11.2 °C 9.8 °C 1018.3 hPa Calm     91% 0.0 mm 0 W/m2
04:06 11.2 °C 9.8 °C 1018.3 hPa Calm     91% 0.0 mm 0 W/m2
04:11 11.2 °C 9.8 °C 1018.3 hPa Calm     91% 0.0 mm 0 W/m2
04:16 11.2 °C 9.8 °C 1018.6 hPa Calm     91% 0.0 mm 0 W/m2
04:21 11.2 °C 9.8 °C 1018.6 hPa Calm     91% 0.0 mm 0 W/m2
04:26 11.2 °C 9.8 °C 1018.6 hPa Calm     91% 0.0 mm 0 W/m2
04:31 11.3 °C 9.9 °C 1018.6 hPa Calm     91% 0.0 mm 0 W/m2
04:36 11.3 °C 9.9 °C 1018.6 hPa Calm     91% 0.0 mm 0 W/m2
04:41 11.4 °C 10 °C 1018.6 hPa Calm     91% 0.0 mm 0 W/m2
04:46 11.5 °C 10.2 °C 1018.6 hPa Calm     92% 0.0 mm 0 W/m2
04:51 11.6 °C 10.2 °C 1018.6 hPa Calm     91% 0.0 mm 0 W/m2
04:56 11.7 °C 10.3 °C 1018.6 hPa WNW 1.4 km/h 1.6 km/h 91% 0.0 mm 0 W/m2
05:01 11.7 °C 10.3 °C 1018.6 hPa Calm     91% 0.0 mm 0 W/m2
05:06 11.8 °C 10.4 °C 1018.6 hPa Calm     91% 0.0 mm 0 W/m2
05:11 11.8 °C 10.4 °C 1018.3 hPa Calm     91% 0.0 mm 0 W/m2
05:16 11.8 °C 10.2 °C 1018.6 hPa Calm     90% 0.0 mm 0 W/m2
05:21 11.9 °C 10.3 °C 1018.6 hPa Calm     90% 0.0 mm 0 W/m2
05:26 11.9 °C 10.3 °C 1018.6 hPa Calm     90% 0.0 mm 0 W/m2
05:31 11.9 °C 10.3 °C 1018.6 hPa Calm     90% 0.0 mm 0 W/m2
05:36 11.9 °C 10.3 °C 1018.6 hPa Calm     90% 0.0 mm 0 W/m2
05:41 12.1 °C 10.5 °C 1018.6 hPa Calm   1.6 km/h 90% 0.0 mm 0 W/m2
05:46 12.1 °C 10.3 °C 1018.6 hPa Calm     89% 0.0 mm 0 W/m2
05:51 12.2 °C 10.4 °C 1018.6 hPa Calm   1.6 km/h 89% 0.0 mm 0 W/m2
05:56 12.2 °C 10.4 °C 1018.6 hPa Calm     89% 0.0 mm 0 W/m2
06:01 12.2 °C 10.4 °C 1018.6 hPa Calm     89% 0.0 mm 0 W/m2
06:06 12.2 °C 10.4 °C 1018.6 hPa Calm     89% 0.0 mm 0 W/m2
06:11 12.3 °C 10.5 °C 1018.6 hPa Calm     89% 0.0 mm 0 W/m2
06:16 12.2 °C 10.4 °C 1019.0 hPa Calm   1.6 km/h 89% 0.0 mm 0 W/m2
06:21 12.3 °C 10.5 °C 1018.6 hPa Calm     89% 0.0 mm 0 W/m2
06:26 12.3 °C 10.5 °C 1018.6 hPa Calm     89% 0.0 mm 0 W/m2
06:31 12.3 °C 10.5 °C 1018.6 hPa Calm     89% 0.0 mm 0 W/m2
06:36 12.3 °C 10.5 °C 1018.6 hPa Calm     89% 0.0 mm 0 W/m2
06:41 12.3 °C 10.5 °C 1018.6 hPa Calm     89% 0.0 mm 0 W/m2
06:46 12.3 °C 10.5 °C 1019.0 hPa WNW 1.4 km/h 1.6 km/h 89% 0.0 mm 0 W/m2
06:51 12.3 °C 10.5 °C 1019.0 hPa Calm     89% 0.0 mm 7 W/m2
06:56 12.4 °C 10.6 °C 1019.0 hPa Calm   1.6 km/h 89% 0.0 mm 0 W/m2
07:01 12.4 °C 10.6 °C 1019.0 hPa Calm     89% 0.0 mm 0 W/m2
07:06 12.4 °C 10.6 °C 1019.0 hPa Calm     89% 0.0 mm 0 W/m2
07:11 12.4 °C 10.8 °C 1019.0 hPa Calm     90% 0.0 mm 0 W/m2
07:16 12.5 °C 10.7 °C 1019.0 hPa Calm     89% 0.0 mm 5 W/m2
07:21 12.5 °C 10.7 °C 1019.0 hPa Calm     89% 0.0 mm 9 W/m2
07:26 12.5 °C 10.7 °C 1019.0 hPa Calm     89% 0.0 mm 11 W/m2
07:31 12.6 °C 10.8 °C 1019.0 hPa Calm     89% 0.0 mm 16 W/m2
07:36 12.6 °C 11 °C 1019.0 hPa Calm     90% 0.0 mm 25 W/m2
07:41 12.6 °C 11 °C 1019.0 hPa Calm     90% 0.0 mm 19 W/m2
07:46 12.7 °C 11.1 °C 1019.0 hPa Calm     90% 0.0 mm 16 W/m2
07:51 12.8 °C 11 °C 1019.0 hPa Calm     89% 0.0 mm 21 W/m2
07:56 12.8 °C 11 °C 1019.0 hPa Calm     89% 0.0 mm 40 W/m2
08:01 12.9 °C 11.1 °C 1019.3 hPa Calm     89% 0.0 mm 65 W/m2
08:06 13.1 °C 11.3 °C 1019.3 hPa Calm     89% 0.0 mm 83 W/m2
08:11 13.2 °C 11.3 °C 1019.3 hPa Calm     88% 0.0 mm 83 W/m2
08:16 13.4 °C 11.5 °C 1019.6 hPa Calm     88% 0.0 mm 70 W/m2
08:21 13.5 °C 11.4 °C 1019.6 hPa NW 1.4 km/h 3.2 km/h 87% 0.0 mm 33 W/m2
08:26 13.7 °C 11.4 °C 1019.6 hPa NNE 1.4 km/h 3.2 km/h 86% 0.0 mm 40 W/m2
08:31 13.8 °C 11.5 °C 1019.6 hPa East 3.2 km/h 3.2 km/h 86% 0.0 mm 56 W/m2
08:36 13.8 °C 11.3 °C 1019.6 hPa East 1.4 km/h 1.6 km/h 85% 0.0 mm 69 W/m2
08:42 13.9 °C 11.6 °C 1019.6 hPa Calm     86% 0.0 mm 88 W/m2
08:47 14.1 °C 11.6 °C 1019.6 hPa Calm     85% 0.0 mm 197 W/m2
08:52 14.2 °C 11.5 °C 1019.6 hPa Calm     84% 0.0 mm 84 W/m2
08:57 14.4 °C 11.5 °C 1019.6 hPa Calm   1.6 km/h 83% 0.0 mm 72 W/m2
09:02 14.6 °C 11.7 °C 1019.6 hPa Calm   3.2 km/h 83% 0.0 mm 77 W/m2
09:07 14.7 °C 11.7 °C 1020.0 hPa East 3.2 km/h 3.2 km/h 82% 0.0 mm 93 W/m2
09:12 14.8 °C 11.4 °C 1020.0 hPa Calm   1.6 km/h 80% 0.0 mm 102 W/m2
09:17 15 °C 11.4 °C 1020.0 hPa Calm   1.6 km/h 79% 0.0 mm 113 W/m2
09:22 15.2 °C 11.4 °C 1020.0 hPa WNW 1.4 km/h 3.2 km/h 78% 0.0 mm 109 W/m2
09:27 15.4 °C 11.4 °C 1020.3 hPa NW 3.2 km/h 3.2 km/h 77% 0.0 mm 113 W/m2
09:32 15.5 °C 11.3 °C 1020.3 hPa WNW 1.4 km/h 4.8 km/h 76% 0.0 mm 113 W/m2
09:37 15.6 °C 11.2 °C 1020.3 hPa WNW 1.4 km/h 4.8 km/h 75% 0.0 mm 134 W/m2
09:42 15.8 °C 11.2 °C 1020.3 hPa Calm   4.8 km/h 74% 0.0 mm 162 W/m2
09:47 16 °C 11.2 °C 1020.3 hPa WNW 3.2 km/h 3.2 km/h 73% 0.0 mm 174 W/m2
09:52 16.2 °C 11.1 °C 1020.3 hPa WNW 4.7 km/h 4.8 km/h 72% 0.0 mm 167 W/m2
09:57 16.3 °C 11.2 °C 1020.3 hPa NW 3.2 km/h 3.2 km/h 72% 0.0 mm 144 W/m2
10:02 16.6 °C 11.3 °C 1020.3 hPa West 1.4 km/h 3.2 km/h 71% 0.0 mm 197 W/m2
10:07 16.8 °C 11.3 °C 1020.3 hPa Calm   3.2 km/h 70% 0.0 mm 199 W/m2
10:13 17.1 °C 11.4 °C 1020.3 hPa WNW 1.4 km/h 1.6 km/h 69% 0.0 mm 183 W/m2
10:18 17.2 °C 11 °C 1020.3 hPa WNW 4.7 km/h 4.8 km/h 67% 0.0 mm 214 W/m2
10:23 17.3 °C 11.1 °C 1020.7 hPa NW 3.2 km/h 4.8 km/h 67% 0.0 mm 220 W/m2
10:28 17.4 °C 11 °C 1020.7 hPa WSW 3.2 km/h 3.2 km/h 66% 0.0 mm 197 W/m2
10:33 17.6 °C 11.2 °C 1020.7 hPa WSW 1.4 km/h 6.4 km/h 66% 0.0 mm 169 W/m2
10:38 17.7 °C 11.3 °C 1020.7 hPa NW 4.7 km/h 9.7 km/h 66% 0.0 mm 186 W/m2
10:43 17.8 °C 11.4 °C 1020.7 hPa NW 4.7 km/h 11.3 km/h 66% 0.0 mm 241 W/m2
10:48 17.8 °C 10.9 °C 1020.7 hPa WNW 7.9 km/h 11.3 km/h 64% 0.0 mm 211 W/m2
10:53 17.8 °C 10.9 °C 1021.0 hPa WSW 4.7 km/h 9.7 km/h 64% 0.0 mm 174 W/m2
10:58 17.9 °C 11 °C 1020.7 hPa NW 4.7 km/h 8 km/h 64% 0.0 mm 186 W/m2
11:03 17.9 °C 10.8 °C 1021.0 hPa WNW 7.9 km/h 16.1 km/h 63% 0.0 mm 195 W/m2
11:08 18.1 °C 10.9 °C 1021.0 hPa WSW 6.4 km/h 9.7 km/h 63% 0.0 mm 214 W/m2
11:13 18.3 °C 11.1 °C 1021.0 hPa West 6.4 km/h 9.7 km/h 63% 0.0 mm 301 W/m2
11:18 18.6 °C 10.9 °C 1021.0 hPa West 11.1 km/h 16.1 km/h 61% 0.0 mm 323 W/m2
11:23 18.6 °C 10.7 °C 1021.0 hPa NNW 7.9 km/h 16.1 km/h 60% 0.0 mm 339 W/m2
11:28 18.8 °C 11.1 °C 1021.0 hPa WNW 3.2 km/h 9.7 km/h 61% 0.0 mm 264 W/m2
11:33 18.9 °C 11.2 °C 1021.0 hPa West 4.7 km/h 14.5 km/h 61% 0.0 mm 265 W/m2
11:38 18.7 °C 11 °C 1021.0 hPa NW 6.4 km/h 11.3 km/h 61% 0.0 mm 218 W/m2
11:43 18.7 °C 11.3 °C 1021.0 hPa NW 4.7 km/h 16.1 km/h 62% 0.0 mm 225 W/m2
11:48 18.7 °C 11 °C 1021.0 hPa West 6.4 km/h 11.3 km/h 61% 0.0 mm 285 W/m2
11:53 18.7 °C 11.3 °C 1021.0 hPa WSW 3.2 km/h 12.9 km/h 62% 0.0 mm 281 W/m2
11:58 18.7 °C 10.8 °C 1021.0 hPa WNW 4.7 km/h 6.4 km/h 60% 0.0 mm 232 W/m2
12:03 18.8 °C 11.1 °C 1020.7 hPa WNW 3.2 km/h 3.2 km/h 61% 0.0 mm 362 W/m2
12:08 19 °C 10.8 °C 1020.7 hPa NNW 4.7 km/h 4.8 km/h 59% 0.0 mm 450 W/m2
12:13 19.1 °C 10.9 °C 1020.7 hPa NW 6.4 km/h 6.4 km/h 59% 0.0 mm 308 W/m2
12:18 19.3 °C 10.8 °C 1020.7 hPa NW 4.7 km/h 4.8 km/h 58% 0.0 mm 294 W/m2
12:23 19.4 °C 10.7 °C 1020.7 hPa West 1.4 km/h 4.8 km/h 57% 0.0 mm 392 W/m2
12:28 19.6 °C 10.6 °C 1020.7 hPa Calm   6.4 km/h 56% 0.0 mm 446 W/m2
12:33 19.7 °C 10.7 °C 1020.7 hPa WNW 6.4 km/h 11.3 km/h 56% 0.0 mm 397 W/m2
12:38 19.6 °C 10.6 °C 1020.7 hPa Calm   6.4 km/h 56% 0.0 mm 262 W/m2
12:43 19.7 °C 10.7 °C 1020.7 hPa SSE 6.4 km/h 12.9 km/h 56% 0.0 mm 234 W/m2
12:48 19.8 °C 10.8 °C 1020.7 hPa West 1.4 km/h 3.2 km/h 56% 0.0 mm 234 W/m2
12:53 19.8 °C 10.2 °C 1021.0 hPa NW 4.7 km/h 9.7 km/h 54% 0.0 mm 227 W/m2
12:58 19.8 °C 10.2 °C 1021.0 hPa WNW 3.2 km/h 9.7 km/h 54% 0.0 mm 237 W/m2
13:03 19.8 °C 10.2 °C 1021.0 hPa WNW 3.2 km/h 11.3 km/h 54% 0.0 mm 246 W/m2
13:08 19.8 °C 10.5 °C 1021.0 hPa NNW 7.9 km/h 11.3 km/h 55% 0.0 mm 257 W/m2
13:13 19.8 °C 10.2 °C 1021.0 hPa NNE 3.2 km/h 11.3 km/h 54% 0.0 mm 204 W/m2
13:18 19.8 °C 10.2 °C 1020.7 hPa NW 3.2 km/h 9.7 km/h 54% 0.0 mm 229 W/m2
13:23 19.8 °C 9.9 °C 1020.7 hPa WNW 6.4 km/h 6.4 km/h 53% 0.0 mm 202 W/m2
13:28 19.8 °C 9.9 °C 1020.7 hPa WNW 1.4 km/h 4.8 km/h 53% 0.0 mm 220 W/m2
13:33 19.8 °C 9.9 °C 1020.7 hPa NW 4.7 km/h 6.4 km/h 53% 0.0 mm 202 W/m2
13:38 19.9 °C 10 °C 1020.7 hPa North 3.2 km/h 6.4 km/h 53% 0.0 mm 255 W/m2
13:43 20.1 °C 10.2 °C 1020.7 hPa NE 3.2 km/h 4.8 km/h 53% 0.0 mm 401 W/m2
13:48 20.4 °C 10.2 °C 1020.7 hPa ENE 4.7 km/h 4.8 km/h 52% 0.0 mm 378 W/m2
13:53 20.7 °C 10.2 °C 1020.7 hPa NNE 3.2 km/h 6.4 km/h 51% 0.0 mm 364 W/m2
13:58 20.9 °C 10.4 °C 1020.3 hPa ENE 3.2 km/h 4.8 km/h 51% 0.0 mm 450 W/m2
14:03 21.2 °C 10.4 °C 1020.3 hPa ENE 4.7 km/h 8 km/h 50% 0.0 mm 454 W/m2
14:08 21.4 °C 10.2 °C 1020.3 hPa WNW 3.2 km/h 8 km/h 49% 0.0 mm 378 W/m2
14:13 21.6 °C 10.4 °C 1020.3 hPa NW 4.7 km/h 12.9 km/h 49% 0.0 mm 369 W/m2
14:18 21.8 °C 10.6 °C 1020.3 hPa SE 4.7 km/h 6.4 km/h 49% 0.0 mm 805 W/m2
14:23 22.4 °C 10.5 °C 1020.3 hPa East 1.4 km/h 9.7 km/h 47% 0.0 mm 738 W/m2
14:28 22.8 °C 10.6 °C 1020.3 hPa WNW 7.9 km/h 11.3 km/h 46% 0.0 mm 751 W/m2
14:33 22.7 °C 10.5 °C 1020.3 hPa West 3.2 km/h 19.3 km/h 46% 0.0 mm 336 W/m2
14:38 22.4 °C 10.2 °C 1020.3 hPa WNW 6.4 km/h 8 km/h 46% 0.0 mm 302 W/m2
14:43 22.2 °C 10 °C 1020.3 hPa West 3.2 km/h 19.3 km/h 46% 0.0 mm 343 W/m2
14:48 22.1 °C 10.3 °C 1020.3 hPa West 6.4 km/h 12.9 km/h 47% 0.0 mm 396 W/m2
14:53 22.2 °C 10.7 °C 1020.3 hPa East 4.7 km/h 17.7 km/h 48% 0.0 mm 417 W/m2
14:58 22.3 °C 10.4 °C 1020.3 hPa North 3.2 km/h 9.7 km/h 47% 0.0 mm 410 W/m2
15:03 22.4 °C 10.2 °C 1020.0 hPa West 1.4 km/h 12.9 km/h 46% 0.0 mm 355 W/m2
15:08 22.4 °C 10.2 °C 1020.3 hPa West 4.7 km/h 16.1 km/h 46% 0.0 mm 329 W/m2
15:13 22.5 °C 10.6 °C 1020.0 hPa SW 4.7 km/h 9.7 km/h 47% 0.0 mm 362 W/m2
15:18 22.6 °C 10.7 °C 1020.0 hPa WNW 4.7 km/h 14.5 km/h 47% 0.0 mm 308 W/m2
15:23 22.8 °C 10.9 °C 1020.3 hPa WNW 3.2 km/h 4.8 km/h 47% 0.0 mm 279 W/m2
15:28 22.9 °C 11 °C 1020.0 hPa West 1.4 km/h 8 km/h 47% 0.0 mm 223 W/m2
15:33 22.9 °C 11 °C 1020.0 hPa Calm   6.4 km/h 47% 0.0 mm 213 W/m2
15:38 22.8 °C 10.6 °C 1020.0 hPa ESE 7.9 km/h 11.3 km/h 46% 0.0 mm 181 W/m2
15:43 22.7 °C 10.5 °C 1020.3 hPa NW 3.2 km/h 9.7 km/h 46% 0.0 mm 171 W/m2
15:48 22.6 °C 10.7 °C 1020.0 hPa WNW 11.1 km/h 11.3 km/h 47% 0.0 mm 158 W/m2
15:53 22.6 °C 10.7 °C 1020.0 hPa NNW 3.2 km/h 12.9 km/h 47% 0.0 mm 202 W/m2
15:58 22.6 °C 10.7 °C 1020.0 hPa West 4.7 km/h 9.7 km/h 47% 0.0 mm 192 W/m2
16:03 22.6 °C 10.7 °C 1020.0 hPa SSW 4.7 km/h 9.7 km/h 47% 0.0 mm 176 W/m2
16:08 22.6 °C 11 °C 1020.0 hPa East 3.2 km/h 4.8 km/h 48% 0.0 mm 199 W/m2
16:13 22.6 °C 10.7 °C 1020.0 hPa NW 1.4 km/h 6.4 km/h 47% 0.0 mm 158 W/m2
16:19 22.6 °C 10.4 °C 1020.0 hPa North 4.7 km/h 6.4 km/h 46% 0.0 mm 179 W/m2
16:24 22.7 °C 10.5 °C 1020.0 hPa West 3.2 km/h 3.2 km/h 46% 0.0 mm 178 W/m2
16:29 22.7 °C 10.8 °C 1020.0 hPa Calm     47% 0.0 mm 190 W/m2
16:34 22.8 °C 11.5 °C 1020.0 hPa Calm   3.2 km/h 49% 0.0 mm 176 W/m2
16:39 22.8 °C 10.6 °C 1020.0 hPa East 4.7 km/h 4.8 km/h 46% 0.0 mm 183 W/m2
16:44 22.9 °C 10.7 °C 1019.6 hPa NW 3.2 km/h 6.4 km/h 46% 0.0 mm 237 W/m2
16:49 23.1 °C 10.8 °C 1019.6 hPa WNW 7.9 km/h 8 km/h 46% 0.0 mm 401 W/m2
16:54 23.7 °C 11.4 °C 1019.6 hPa West 4.7 km/h 4.8 km/h 46% 0.0 mm 561 W/m2
16:59 24.2 °C 10.8 °C 1019.6 hPa West 11.1 km/h 11.3 km/h 43% 0.0 mm 589 W/m2
17:04 24.1 °C 11.1 °C 1019.6 hPa West 4.7 km/h 11.3 km/h 44% 0.0 mm 295 W/m2
17:09 24.2 °C 11.5 °C 1019.6 hPa NE 3.2 km/h 6.4 km/h 45% 0.0 mm 357 W/m2
17:14 24.4 °C 11.4 °C 1019.6 hPa WSW 3.2 km/h 8 km/h 44% 0.0 mm 260 W/m2
17:19 24.3 °C 10.9 °C 1019.6 hPa Calm   6.4 km/h 43% 0.0 mm 209 W/m2
17:24 24.3 °C 10.9 °C 1019.6 hPa NW 4.7 km/h 8 km/h 43% 0.0 mm 373 W/m2
17:29 24.3 °C 11.3 °C 1019.6 hPa North 3.2 km/h 3.2 km/h 44% 0.0 mm 301 W/m2
17:34 24.3 °C 10.9 °C 1019.6 hPa NNW 3.2 km/h 4.8 km/h 43% 0.0 mm 214 W/m2
17:39 24.5 °C 11.4 °C 1019.6 hPa West 1.4 km/h 6.4 km/h 44% 0.0 mm 475 W/m2
17:44 24.6 °C 11.2 °C 1019.6 hPa Calm   6.4 km/h 43% 0.0 mm 302 W/m2
17:49 24.7 °C 11.3 °C 1019.6 hPa WNW 7.9 km/h 12.9 km/h 43% 0.0 mm 445 W/m2
17:54 25 °C 11.6 °C 1019.6 hPa WSW 4.7 km/h 6.4 km/h 43% 0.0 mm 376 W/m2
17:59 24.8 °C 11 °C 1019.6 hPa WNW 3.2 km/h 12.9 km/h 42% 0.0 mm 139 W/m2
18:04 24.6 °C 11.2 °C 1019.6 hPa SW 1.4 km/h 3.2 km/h 43% 0.0 mm 123 W/m2
18:09 24.6 °C 11.5 °C 1019.6 hPa NW 9.7 km/h 9.7 km/h 44% 0.0 mm 336 W/m2
18:14 24.7 °C 11.3 °C 1019.6 hPa NW 3.2 km/h 4.8 km/h 43% 0.0 mm 135 W/m2
18:19 24.7 °C 11.6 °C 1019.6 hPa NNW 4.7 km/h 8 km/h 44% 0.0 mm 139 W/m2
18:24 24.6 °C 11.2 °C 1019.6 hPa SW 3.2 km/h 6.4 km/h 43% 0.0 mm 111 W/m2
18:29 24.4 °C 11.4 °C 1019.6 hPa North 3.2 km/h 6.4 km/h 44% 0.0 mm 111 W/m2
18:34 24.4 °C 12 °C 1019.6 hPa Calm   1.6 km/h 46% 0.0 mm 105 W/m2
18:39 24.3 °C 11.6 °C 1019.6 hPa SW 1.4 km/h 1.6 km/h 45% 0.0 mm 77 W/m2
18:44 24.3 °C 11.6 °C 1019.6 hPa West 4.7 km/h 12.9 km/h 45% 0.0 mm 62 W/m2
18:49 24.2 °C 11.5 °C 1019.6 hPa NW 4.7 km/h 4.8 km/h 45% 0.0 mm 63 W/m2
18:54 24.1 °C 11.4 °C 1020.0 hPa West 1.4 km/h 9.7 km/h 45% 0.0 mm 56 W/m2
18:59 23.9 °C 11.2 °C 1020.0 hPa NW 7.9 km/h 11.3 km/h 45% 0.0 mm 53 W/m2
19:04 23.9 °C 11.6 °C 1020.0 hPa NW 3.2 km/h 16.1 km/h 46% 0.0 mm 47 W/m2
19:09 23.8 °C 11.2 °C 1020.0 hPa West 9.7 km/h 17.7 km/h 45% 0.0 mm 60 W/m2
19:14 23.8 °C 11.5 °C 1020.0 hPa WNW 3.2 km/h 4.8 km/h 46% 0.0 mm 47 W/m2
19:19 23.7 °C 11.7 °C 1020.0 hPa WSW 3.2 km/h 3.2 km/h 47% 0.0 mm 56 W/m2
19:24 23.7 °C 11.4 °C 1020.0 hPa NW 4.7 km/h 4.8 km/h 46% 0.0 mm 49 W/m2
19:29 23.6 °C 11.6 °C 1020.0 hPa West 3.2 km/h 4.8 km/h 47% 0.0 mm 40 W/m2
19:34 23.6 °C 11.6 °C 1020.0 hPa NW 4.7 km/h 8 km/h 47% 0.0 mm 35 W/m2
19:39 23.5 °C 11.9 °C 1020.0 hPa West 1.4 km/h 4.8 km/h 48% 0.0 mm 26 W/m2
19:44 23.4 °C 11.8 °C 1020.0 hPa Calm   8 km/h 48% 0.0 mm 19 W/m2
19:49 23.3 °C 12 °C 1020.0 hPa Calm     49% 0.0 mm 21 W/m2
19:54 23.2 °C 11.9 °C 1020.0 hPa Calm   3.2 km/h 49% 0.0 mm 19 W/m2
19:59 23.1 °C 12.4 °C 1020.0 hPa Calm     51% 0.0 mm 12 W/m2
20:05 22.8 °C 13 °C 1020.3 hPa Calm   3.2 km/h 54% 0.0 mm 7 W/m2
20:10 22.6 °C 13.1 °C 1020.3 hPa Calm   1.6 km/h 55% 0.0 mm 5 W/m2
20:15 22.2 °C 12.7 °C 1020.3 hPa Calm   1.6 km/h 55% 0.0 mm 0 W/m2
20:20 21.9 °C 12.7 °C 1020.3 hPa Calm     56% 0.0 mm 0 W/m2
20:25 21.6 °C 12.7 °C 1020.3 hPa Calm   1.6 km/h 57% 0.0 mm 0 W/m2
20:30 21.3 °C 12.7 °C 1020.3 hPa Calm   1.6 km/h 58% 0.0 mm 0 W/m2
20:35 21.2 °C 12.9 °C 1020.7 hPa Calm   1.6 km/h 59% 0.0 mm 0 W/m2
20:40 21 °C 12.7 °C 1020.7 hPa WNW 3.2 km/h 3.2 km/h 59% 0.0 mm 0 W/m2
20:45 20.9 °C 12.3 °C 1020.7 hPa Calm   1.6 km/h 58% 0.0 mm 0 W/m2
20:50 20.8 °C 12.5 °C 1020.7 hPa Calm     59% 0.0 mm 0 W/m2
20:55 20.8 °C 12.5 °C 1020.7 hPa Calm     59% 0.0 mm 0 W/m2
21:00 20.7 °C 12.7 °C 1020.7 hPa Calm     60% 0.0 mm 0 W/m2
21:05 20.7 °C 12.7 °C 1020.7 hPa WNW 1.4 km/h 3.2 km/h 60% 0.0 mm 0 W/m2
21:10 20.6 °C 12.6 °C 1020.7 hPa WNW 1.4 km/h 3.2 km/h 60% 0.0 mm 0 W/m2
21:15 20.6 °C 12.6 °C 1020.7 hPa WNW 1.4 km/h 3.2 km/h 60% 0.0 mm 0 W/m2
21:20 20.6 °C 12.8 °C 1020.7 hPa Calm   1.6 km/h 61% 0.0 mm 0 W/m2
21:25 20.5 °C 13 °C 1020.7 hPa Calm   1.6 km/h 62% 0.0 mm 0 W/m2
21:30 20.4 °C 12.6 °C 1021.0 hPa Calm   1.6 km/h 61% 0.0 mm 0 W/m2
21:35 20.4 °C 12.6 °C 1021.0 hPa WNW 1.4 km/h 3.2 km/h 61% 0.0 mm 0 W/m2
21:40 20.4 °C 12.6 °C 1021.0 hPa Calm   1.6 km/h 61% 0.0 mm 0 W/m2
21:45 20.3 °C 12.8 °C 1021.0 hPa Calm     62% 0.0 mm 0 W/m2
21:50 20.3 °C 12.8 °C 1021.0 hPa Calm   1.6 km/h 62% 0.0 mm 0 W/m2
21:55 20.2 °C 12.7 °C 1021.0 hPa Calm     62% 0.0 mm 0 W/m2
22:00 20.2 °C 12.7 °C 1021.0 hPa Calm     62% 0.0 mm 0 W/m2
22:05 20.1 °C 12.8 °C 1021.0 hPa Calm     63% 0.0 mm 0 W/m2
22:10 20 °C 12.5 °C 1021.0 hPa Calm     62% 0.0 mm 0 W/m2
22:15 19.9 °C 12.6 °C 1021.0 hPa Calm     63% 0.0 mm 0 W/m2
22:21 19.9 °C 12.6 °C 1021.3 hPa Calm     63% 0.0 mm 0 W/m2
22:26 19.8 °C 12.8 °C 1021.0 hPa Calm     64% 0.0 mm 0 W/m2
22:31 19.8 °C 12.8 °C 1021.3 hPa Calm     64% 0.0 mm 0 W/m2
22:36 19.7 °C 12.7 °C 1021.3 hPa Calm     64% 0.0 mm 0 W/m2
22:41 19.7 °C 12.5 °C 1021.3 hPa West 1.4 km/h 3.2 km/h 63% 0.0 mm 0 W/m2
22:46 19.7 °C 12.7 °C 1021.3 hPa Calm   1.6 km/h 64% 0.0 mm 0 W/m2
22:51 19.8 °C 12.6 °C 1021.3 hPa Calm   3.2 km/h 63% 0.0 mm 0 W/m2
22:56 19.8 °C 12.6 °C 1021.3 hPa Calm     63% 0.0 mm 0 W/m2
23:01 19.8 °C 12.3 °C 1021.0 hPa Calm   1.6 km/h 62% 0.0 mm 0 W/m2
23:06 19.8 °C 12.1 °C 1021.3 hPa SW 1.4 km/h 1.6 km/h 61% 0.0 mm 0 W/m2
23:11 20.1 °C 11.3 °C 1021.0 hPa Calm   3.2 km/h 57% 0.0 mm 0 W/m2
23:16 20.4 °C 12.1 °C 1021.0 hPa Calm   1.6 km/h 59% 0.0 mm 0 W/m2
23:21 20.5 °C 12.2 °C 1021.0 hPa Calm     59% 0.0 mm 0 W/m2
23:26 20.5 °C 12 °C 1021.0 hPa Calm   1.6 km/h 58% 0.0 mm 0 W/m2
23:31 20.5 °C 11.7 °C 1021.0 hPa Calm   1.6 km/h 57% 0.0 mm 0 W/m2
23:36 20.4 °C 12.4 °C 1021.0 hPa Calm     60% 0.0 mm 0 W/m2
23:41 20.3 °C 12.3 °C 1021.0 hPa Calm     60% 0.0 mm 0 W/m2
23:46 20.2 °C 12.4 °C 1021.0 hPa Calm     61% 0.0 mm 0 W/m2
23:51 20.1 °C 12.6 °C 1021.0 hPa Calm     62% 0.0 mm 0 W/m2
23:56 20.1 °C 12.6 °C 1021.0 hPa Calm     62% 0.0 mm 0 W/m2
Juneau County Weather
Compliments of Weather Underground - 4 mb